Time;durP1;ratioP1;P1;durP2;ratioP2;P2;SDS_P1;SDS_P2;PMS_P1;PMS_P2;Temp;Humidity;BMP_temperature;BMP_pressure;BME280_temperature;BME280_humidity;BME280_pressure;Samples;Min_cycle;Max_cycle;Signal;HPM_P1;HPM_P2
2023/07/13 00:00:50;;;;;;;;;;;;;;;24.46;33.87;100305.13;4917485;28;103954;-71
2023/07/13 00:03:17;;;;;;;;;;;;;;;24.42;33.82;100315.28;4924028;28;98015;-69
2023/07/13 00:05:43;;;;;;;;;;;;;;;24.40;33.99;100314.03;4934767;28;98613;-71
2023/07/13 00:08:11;;;;;;;;;;;;;;;24.36;33.92;100313.94;4917980;28;98085;-69
2023/07/13 00:10:41;;;;;;;;;;;;;;;24.34;33.91;100290.69;4918090;28;98216;-69
2023/07/13 00:13:08;;;;;;;;;;;;;;;24.31;33.73;100296.91;4939539;28;99462;-71
2023/07/13 00:15:35;;;;;;;;;;;;;;;24.27;34.17;100304.31;4922889;28;98389;-71
2023/07/13 00:18:01;;;;;;;;;;;;;;;24.24;34.09;100300.31;4924560;28;97925;-71
2023/07/13 00:20:28;;;;;;;;;;;;;;;24.23;33.76;100299.53;4920572;28;100003;-69
2023/07/13 00:22:54;;;;;;;;;;;;;;;24.20;34.15;100286.47;4925263;28;98555;-72
2023/07/13 00:25:21;;;;;;;;;;;;;;;24.19;33.91;100284.09;4917200;28;98946;-69
2023/07/13 00:27:48;;;;;;;;;;;;;;;24.16;34.16;100282.06;4919548;28;98138;-69
2023/07/13 00:30:15;;;;;;;;;;;;;;;24.09;34.03;100280.00;4956206;28;98459;-71
2023/07/13 00:32:41;;;;;;;;;;;;;;;24.02;34.11;100263.34;4929809;28;98354;-69
2023/07/13 00:35:08;;;;;;;;;;;;;;;23.96;34.18;100256.50;4928333;28;98310;-69
2023/07/13 00:37:35;;;;;;;;;;;;;;;23.91;34.14;100270.56;4946209;28;98131;-71
2023/07/13 00:40:06;;;;;;;;;;;;;;;23.85;34.03;100280.25;4942469;28;98545;-69
2023/07/13 00:42:33;;;;;;;;;;;;;;;23.75;34.00;100295.41;4926285;28;97938;-69
2023/07/13 00:45:11;;;;;;;;;;;;;;;23.70;34.00;100302.00;4942830;28;98655;-69
2023/07/13 00:47:39;;;;;;;;;;;;;;;23.68;34.16;100318.03;4953831;28;98302;-69
2023/07/13 00:50:09;;;;;;;;;;;;;;;23.64;34.02;100333.63;4925598;28;98625;-71
2023/07/13 00:52:40;;;;;;;;;;;;;;;23.60;33.96;100313.50;4919394;28;98068;-69
2023/07/13 00:55:09;;;;;;;;;;;;;;;23.55;34.06;100308.28;4939510;28;97878;-71
2023/07/13 00:57:35;;;;;;;;;;;;;;;23.50;34.04;100314.88;4945620;28;98169;-71
2023/07/13 01:00:09;;;;;;;;;;;;;;;23.47;34.35;100312.84;4960302;28;99094;-71
2023/07/13 01:02:40;;;;;;;;;;;;;;;23.45;34.26;100311.59;4941503;28;98372;-69
2023/07/13 01:05:11;;;;;;;;;;;;;;;23.43;34.16;100317.47;4941896;28;98721;-69
2023/07/13 01:07:37;;;;;;;;;;;;;;;23.42;34.21;100320.53;4939533;28;98159;-70
2023/07/13 01:10:04;;;;;;;;;;;;;;;23.41;34.10;100318.97;4925626;28;100413;-71
2023/07/13 01:12:30;;;;;;;;;;;;;;;23.40;34.19;100329.16;4927767;28;99226;-69
2023/07/13 01:15:00;;;;;;;;;;;;;;;23.39;34.04;100329.53;4926881;28;98211;-71
2023/07/13 01:17:29;;;;;;;;;;;;;;;23.35;34.27;100334.94;4919127;28;98356;-69
2023/07/13 01:19:55;;;;;;;;;;;;;;;23.31;34.26;100336.03;4952251;28;99096;-72
2023/07/13 01:22:25;;;;;;;;;;;;;;;23.27;34.27;100331.22;4928308;28;97867;-71
2023/07/13 01:24:53;;;;;;;;;;;;;;;23.25;34.36;100330.78;4928615;28;100088;-71
2023/07/13 01:27:24;;;;;;;;;;;;;;;23.24;34.15;100340.19;4938627;28;98508;-69
2023/07/13 01:29:51;;;;;;;;;;;;;;;23.22;34.07;100336.97;4937188;28;97872;-71
2023/07/13 01:32:23;;;;;;;;;;;;;;;23.20;34.07;100344.78;4925482;28;99208;-71
2023/07/13 01:34:50;;;;;;;;;;;;;;;23.16;34.14;100340.38;4928041;28;98225;-70
2023/07/13 01:37:17;;;;;;;;;;;;;;;23.12;34.08;100334.78;4928110;28;98239;-71
2023/07/13 01:39:44;;;;;;;;;;;;;;;23.09;34.29;100335.47;4939011;28;98078;-71
2023/07/13 01:42:10;;;;;;;;;;;;;;;23.08;34.29;100325.66;4923472;28;100634;-71
2023/07/13 01:44:37;;;;;;;;;;;;;;;23.07;34.12;100329.56;4944094;28;113938;-71
2023/07/13 01:47:03;;;;;;;;;;;;;;;23.07;34.20;100317.75;4920543;28;97957;-69
2023/07/13 01:49:30;;;;;;;;;;;;;;;23.07;34.11;100325.97;4927516;28;97945;-71
2023/07/13 01:51:56;;;;;;;;;;;;;;;23.07;34.12;100321.31;4928271;28;97938;-69
2023/07/13 01:54:23;;;;;;;;;;;;;;;23.07;34.23;100313.06;4941581;28;97851;-71
2023/07/13 01:56:49;;;;;;;;;;;;;;;23.06;34.25;100310.66;4923303;28;99858;-69
2023/07/13 01:59:16;;;;;;;;;;;;;;;23.05;34.17;100314.56;4923475;28;98136;-72
2023/07/13 02:01:43;;;;;;;;;;;;;;;23.01;34.20;100319.97;4925056;28;98109;-69
2023/07/13 02:04:10;;;;;;;;;;;;;;;22.98;34.37;100320.66;4926301;28;100651;-71
2023/07/13 02:06:37;;;;;;;;;;;;;;;22.97;34.14;100321.81;4928326;27;98017;-69
2023/07/13 02:09:03;;;;;;;;;;;;;;;22.94;34.37;100325.28;4929724;28;98853;-70
2023/07/13 02:11:32;;;;;;;;;;;;;;;22.93;34.24;100318.19;4925688;28;98202;-71
2023/07/13 02:14:01;;;;;;;;;;;;;;;22.93;34.28;100309.94;4930847;27;99333;-69
2023/07/13 02:16:28;;;;;;;;;;;;;;;22.89;34.15;100307.09;4946446;28;98037;-71
2023/07/13 02:18:55;;;;;;;;;;;;;;;22.88;34.41;100313.75;4930121;28;100103;-71
2023/07/13 02:21:23;;;;;;;;;;;;;;;22.86;34.25;100315.22;4942262;28;98594;-69
2023/07/13 02:23:49;;;;;;;;;;;;;;;22.85;34.27;100314.44;4928124;28;99087;-71
2023/07/13 02:26:16;;;;;;;;;;;;;;;22.82;34.21;100312.38;4931271;28;98113;-70
2023/07/13 02:28:42;;;;;;;;;;;;;;;22.78;34.37;100320.53;4942864;28;98097;-69
2023/07/13 02:31:11;;;;;;;;;;;;;;;22.76;34.31;100320.09;4929746;27;100427;-69
2023/07/13 02:33:38;;;;;;;;;;;;;;;22.74;34.36;100324.34;4946458;27;98100;-69
2023/07/13 02:36:05;;;;;;;;;;;;;;;22.70;34.22;100324.25;4923081;27;98653;-69
2023/07/13 02:38:33;;;;;;;;;;;;;;;22.68;34.46;100329.31;4948253;27;98535;-71
2023/07/13 02:41:00;;;;;;;;;;;;;;;22.67;34.56;100332.41;4930314;28;98145;-70
2023/07/13 02:43:26;;;;;;;;;;;;;;;22.64;34.37;100336.66;4941921;27;99180;-69
2023/07/13 02:45:52;;;;;;;;;;;;;;;22.61;34.56;100337.34;4927501;27;98112;-69
2023/07/13 02:48:19;;;;;;;;;;;;;;;22.60;34.37;100332.19;4943519;28;101122;-71
2023/07/13 02:50:45;;;;;;;;;;;;;;;22.55;34.35;100333.25;4929815;27;98538;-69
2023/07/13 02:53:12;;;;;;;;;;;;;;;22.50;34.48;100339.00;4930173;27;98933;-71
2023/07/13 02:55:40;;;;;;;;;;;;;;;22.44;34.53;100338.47;4928963;27;98050;-69
2023/07/13 02:58:07;;;;;;;;;;;;;;;22.42;34.46;100340.75;4932845;28;100207;-71
2023/07/13 03:00:34;;;;;;;;;;;;;;;22.41;34.32;100350.16;4927732;28;98061;-69
2023/07/13 03:03:01;;;;;;;;;;;;;;;22.36;34.55;100346.84;4935832;27;98024;-69
2023/07/13 03:05:27;;;;;;;;;;;;;;;22.33;34.62;100356.59;4939447;27;98031;-71
2023/07/13 03:07:53;;;;;;;;;;;;;;;22.30;34.53;100354.53;4922292;28;98483;-69
2023/07/13 03:10:20;;;;;;;;;;;;;;;22.32;34.54;100351.44;4926400;28;97939;-71
2023/07/13 03:12:47;;;;;;;;;;;;;;;22.32;34.41;100354.19;4924647;28;98412;-71
2023/07/13 03:15:13;;;;;;;;;;;;;;;22.31;34.32;100347.91;4924035;28;99731;-70
2023/07/13 03:17:40;;;;;;;;;;;;;;;22.32;34.57;100354.97;4925967;28;97944;-71
2023/07/13 03:20:07;;;;;;;;;;;;;;;22.32;34.56;100365.97;4924754;28;98696;-71
2023/07/13 03:22:33;;;;;;;;;;;;;;;22.33;34.45;100369.53;4946035;28;98400;-69
2023/07/13 03:25:00;;;;;;;;;;;;;;;22.33;34.54;100378.56;4924601;28;98348;-72
2023/07/13 03:27:27;;;;;;;;;;;;;;;22.33;34.47;100375.81;4926694;28;97986;-70
2023/07/13 03:29:54;;;;;;;;;;;;;;;22.32;34.30;100360.47;4939661;28;99039;-70
2023/07/13 03:32:22;;;;;;;;;;;;;;;22.32;34.56;100365.97;4924757;28;97871;-69
2023/07/13 03:34:49;;;;;;;;;;;;;;;22.28;34.62;100365.88;4924812;28;98225;-71
2023/07/13 03:37:16;;;;;;;;;;;;;;;22.26;34.54;100370.91;4918493;28;100704;-71
2023/07/13 03:39:42;;;;;;;;;;;;;;;22.27;34.51;100371.69;4920263;28;98338;-71
2023/07/13 03:42:09;;;;;;;;;;;;;;;22.26;34.42;100368.16;4929431;28;98004;-72
2023/07/13 03:44:36;;;;;;;;;;;;;;;22.25;34.48;100363.84;4925248;28;98302;-72
2023/07/13 03:47:02;;;;;;;;;;;;;;;22.23;34.65;100377.09;4935497;28;99021;-70
2023/07/13 03:49:28;;;;;;;;;;;;;;;22.23;34.62;100371.59;4926561;28;98949;-69
2023/07/13 03:51:55;;;;;;;;;;;;;;;22.24;34.52;100381.44;4923608;28;99842;-72
2023/07/13 03:54:21;;;;;;;;;;;;;;;22.25;34.51;100385.78;4928021;28;98117;-71
2023/07/13 03:56:47;;;;;;;;;;;;;;;22.27;34.60;100379.94;4925566;28;98219;-70
2023/07/13 03:59:14;;;;;;;;;;;;;;;22.28;34.41;100387.03;4924575;28;98272;-72
2023/07/13 04:01:41;;;;;;;;;;;;;;;22.30;34.44;100387.47;4936482;28;98112;-72
2023/07/13 04:04:07;;;;;;;;;;;;;;;22.30;34.48;100379.25;4924490;28;98131;-72
2023/07/13 04:06:35;;;;;;;;;;;;;;;22.29;34.40;100389.44;4921844;28;98070;-70
2023/07/13 04:09:03;;;;;;;;;;;;;;;22.26;34.46;100389.31;4946598;28;99826;-72
2023/07/13 04:11:31;;;;;;;;;;;;;;;22.21;34.59;100398.59;4931977;27;98802;-70
2023/07/13 04:13:57;;;;;;;;;;;;;;;22.18;34.55;100393.81;4945820;27;98227;-70
2023/07/13 04:16:24;;;;;;;;;;;;;;;22.19;34.48;100394.59;4927946;27;98600;-70
2023/07/13 04:18:54;;;;;;;;;;;;;;;22.21;34.57;100393.13;4946797;27;98879;-72
2023/07/13 04:21:21;;;;;;;;;;;;;;;22.23;34.55;100395.50;4928931;28;97972;-70
2023/07/13 04:23:48;;;;;;;;;;;;;;;22.28;34.47;100395.25;4948818;27;98136;-71
2023/07/13 04:26:14;;;;;;;;;;;;;;;22.34;34.29;100396.63;4929927;28;98455;-72
2023/07/13 04:28:41;;;;;;;;;;;;;;;22.42;34.37;100401.16;4929226;28;98406;-72
2023/07/13 04:31:08;;;;;;;;;;;;;;;22.49;34.38;100404.13;4928527;28;98221;-72
2023/07/13 04:33:34;;;;;;;;;;;;;;;22.55;34.31;100410.16;4926881;27;97937;-72
2023/07/13 04:36:01;;;;;;;;;;;;;;;22.59;34.40;100418.50;4947462;28;98391;-71
2023/07/13 04:38:29;;;;;;;;;;;;;;;22.62;34.32;100413.09;4925593;28;98017;-72
2023/07/13 04:40:56;;;;;;;;;;;;;;;22.66;34.42;100397.53;4941349;27;98638;-71
2023/07/13 04:43:23;;;;;;;;;;;;;;;22.71;34.31;100399.22;4928636;28;98165;-72
2023/07/13 04:45:51;;;;;;;;;;;;;;;22.72;34.39;100401.63;4927709;27;98915;-73
2023/07/13 04:48:17;;;;;;;;;;;;;;;22.76;34.36;100404.47;4921851;27;98368;-73
2023/07/13 04:50:43;;;;;;;;;;;;;;;22.82;34.42;100403.06;4925677;27;99032;-73
2023/07/13 04:53:11;;;;;;;;;;;;;;;22.93;34.33;100412.41;4925912;28;98403;-71
2023/07/13 04:55:37;;;;;;;;;;;;;;;23.05;34.13;100410.75;4928078;27;98357;-71
2023/07/13 04:58:04;;;;;;;;;;;;;;;23.17;34.07;100411.47;4924619;27;98552;-72
2023/07/13 05:00:31;;;;;;;;;;;;;;;23.26;33.91;100420.38;4944698;27;98469;-73
2023/07/13 05:02:57;;;;;;;;;;;;;;;23.33;34.03;100416.19;4932508;27;98143;-72
2023/07/13 05:05:25;;;;;;;;;;;;;;;23.37;34.32;100419.81;4959343;27;98214;-70
2023/07/13 05:07:53;;;;;;;;;;;;;;;23.35;34.01;100420.19;4932404;28;98402;-71
2023/07/13 05:10:20;;;;;;;;;;;;;;;23.34;34.35;100417.78;4930872;28;98024;-73
2023/07/13 05:12:47;;;;;;;;;;;;;;;23.31;34.21;100424.00;4932192;27;98415;-72
2023/07/13 05:15:14;;;;;;;;;;;;;;;23.24;34.62;100432.84;4944177;27;98000;-70
2023/07/13 05:17:40;;;;;;;;;;;;;;;23.19;34.39;100435.88;4933820;28;98065;-71
2023/07/13 05:20:07;;;;;;;;;;;;;;;23.15;34.41;100437.75;4926465;28;98170;-72
2023/07/13 05:22:36;;;;;;;;;;;;;;;23.12;34.39;100436.47;4933504;28;98068;-72
2023/07/13 05:25:05;;;;;;;;;;;;;;;23.12;34.51;100438.44;4931888;27;98584;-71
2023/07/13 05:27:31;;;;;;;;;;;;;;;23.19;34.56;100439.41;4931333;28;98000;-71
2023/07/13 05:29:57;;;;;;;;;;;;;;;23.26;34.23;100444.28;4927859;27;97952;-71
2023/07/13 05:32:23;;;;;;;;;;;;;;;23.37;34.30;100448.13;4926625;28;98325;-73
2023/07/13 05:34:49;;;;;;;;;;;;;;;23.50;34.50;100452.41;4930741;27;98251;-71
2023/07/13 05:37:15;;;;;;;;;;;;;;;23.60;34.18;100453.00;4947761;27;98321;-73
2023/07/13 05:39:41;;;;;;;;;;;;;;;23.62;34.41;100457.00;4958359;27;104251;-73
2023/07/13 05:42:07;;;;;;;;;;;;;;;23.60;34.48;100459.31;4926774;27;109591;-73
2023/07/13 05:44:33;;;;;;;;;;;;;;;23.61;34.55;100449.09;4927789;27;98286;-73
2023/07/13 05:46:59;;;;;;;;;;;;;;;23.63;34.46;100450.34;4930979;27;110383;-72
2023/07/13 05:49:25;;;;;;;;;;;;;;;23.67;34.21;100461.47;4945354;27;98161;-72
2023/07/13 05:51:51;;;;;;;;;;;;;;;23.69;34.51;100459.94;4923628;27;98371;-73
2023/07/13 05:54:17;;;;;;;;;;;;;;;23.70;34.29;100464.31;4929694;27;98235;-73
2023/07/13 05:56:43;;;;;;;;;;;;;;;23.75;34.31;100460.50;4924110;28;99634;-74
2023/07/13 05:59:09;;;;;;;;;;;;;;;23.77;34.64;100458.16;4943114;28;99475;-72
2023/07/13 06:01:36;;;;;;;;;;;;;;;23.77;34.53;100456.22;4929628;28;98272;-73
2023/07/13 06:04:02;;;;;;;;;;;;;;;23.80;34.40;100462.97;4941466;28;98593;-73
2023/07/13 06:06:28;;;;;;;;;;;;;;;23.87;34.28;100463.13;4928080;27;98172;-71
2023/07/13 06:08:57;;;;;;;;;;;;;;;24.73;33.79;100454.81;4921608;28;98611;-72
2023/07/13 06:11:25;;;;;;;;;;;;;;;25.41;33.67;100450.56;4948086;28;98137;-72
2023/07/13 06:13:51;;;;;;;;;;;;;;;26.02;33.42;100443.28;4929216;28;99539;-74
2023/07/13 06:16:18;;;;;;;;;;;;;;;26.61;33.09;100455.56;4929862;28;98055;-72
2023/07/13 06:18:44;;;;;;;;;;;;;;;27.56;32.61;100459.72;4931585;27;97982;-74
2023/07/13 06:21:21;;;;;;;;;;;;;;;28.11;32.41;100461.72;4945623;28;98038;-72
2023/07/13 06:23:50;;;;;;;;;;;;;;;28.99;32.17;100460.56;4924672;28;98196;-72
2023/07/13 06:26:17;;;;;;;;;;;;;;;29.37;32.01;100463.00;4960628;27;98230;-72
2023/07/13 06:28:43;;;;;;;;;;;;;;;29.96;32.15;100461.41;4932433;28;99525;-74
2023/07/13 06:31:11;;;;;;;;;;;;;;;30.43;32.20;100466.88;4959959;27;98317;-75
2023/07/13 06:33:37;;;;;;;;;;;;;;;31.08;31.86;100459.03;4922486;28;98137;-74
2023/07/13 06:36:04;;;;;;;;;;;;;;;31.81;31.38;100463.66;4946388;28;98338;-71
2023/07/13 06:38:31;;;;;;;;;;;;;;;32.71;31.28;100465.09;4942376;28;98347;-72
2023/07/13 06:40:57;;;;;;;;;;;;;;;34.40;29.93;100466.72;4928780;28;98118;-72
2023/07/13 06:43:24;;;;;;;;;;;;;;;35.63;29.17;100466.38;4945924;28;99307;-74
2023/07/13 06:45:51;;;;;;;;;;;;;;;35.37;29.57;100464.59;4929214;27;98181;-73
2023/07/13 06:48:18;;;;;;;;;;;;;;;34.98;30.21;100466.31;4944073;27;98106;-79
2023/07/13 06:50:44;;;;;;;;;;;;;;;34.83;30.13;100462.25;4945649;27;98018;-71
2023/07/13 06:53:11;;;;;;;;;;;;;;;34.69;30.56;100458.53;4925518;28;98334;-71
2023/07/13 06:55:37;;;;;;;;;;;;;;;34.61;30.53;100461.94;4948328;28;98453;-71
2023/07/13 06:58:03;;;;;;;;;;;;;;;34.64;30.61;100461.84;4931965;28;99199;-70
2023/07/13 07:00:30;;;;;;;;;;;;;;;34.77;30.37;100466.78;4929598;28;97711;-71
2023/07/13 07:02:56;;;;;;;;;;;;;;;34.87;30.62;100460.94;4942950;27;98270;-71
2023/07/13 07:05:22;;;;;;;;;;;;;;;34.88;30.77;100473.72;4944010;27;98257;-72
2023/07/13 07:07:52;;;;;;;;;;;;;;;35.08;30.70;100473.69;4941973;27;98144;-76
2023/07/13 07:10:18;;;;;;;;;;;;;;;35.29;30.61;100464.03;4930568;28;97899;-76
2023/07/13 07:12:45;;;;;;;;;;;;;;;35.55;30.30;100461.41;4925838;27;97979;-75
2023/07/13 07:15:12;;;;;;;;;;;;;;;35.95;30.14;100472.38;4931374;27;98185;-75
2023/07/13 07:17:38;;;;;;;;;;;;;;;36.29;30.10;100474.66;4928139;28;99467;-75
2023/07/13 07:20:04;;;;;;;;;;;;;;;36.36;30.08;100469.66;4945188;27;98525;-70
2023/07/13 07:22:31;;;;;;;;;;;;;;;36.51;29.97;100472.06;4941190;27;98177;-74
2023/07/13 07:24:58;;;;;;;;;;;;;;;36.77;29.83;100473.66;4922121;27;97948;-75
2023/07/13 07:27:24;;;;;;;;;;;;;;;37.12;29.67;100475.84;4945307;27;98141;-75
2023/07/13 07:29:50;;;;;;;;;;;;;;;37.49;29.40;100475.03;4927024;27;98319;-74
2023/07/13 07:32:16;;;;;;;;;;;;;;;37.44;29.76;100472.81;4929055;27;98101;-70
2023/07/13 07:34:43;;;;;;;;;;;;;;;36.90;30.26;100472.91;4931444;28;100494;-72
2023/07/13 07:37:13;;;;;;;;;;;;;;;36.74;30.38;100470.97;4926567;28;99834;-72
2023/07/13 07:39:39;;;;;;;;;;;;;;;36.94;29.88;100463.16;4929655;27;100285;-73
2023/07/13 07:42:05;;;;;;;;;;;;;;;36.19;30.75;100464.53;4936218;27;100219;-72
2023/07/13 07:44:32;;;;;;;;;;;;;;;35.46;31.15;100467.59;4927487;27;98245;-72
2023/07/13 07:46:58;;;;;;;;;;;;;;;36.79;30.22;100476.06;4927130;28;97949;-76
2023/07/13 07:49:25;;;;;;;;;;;;;;;37.52;29.56;100467.75;4944731;27;98314;-72
2023/07/13 07:51:51;;;;;;;;;;;;;;;38.28;28.82;100478.75;4932432;27;98041;-72
2023/07/13 07:54:17;;;;;;;;;;;;;;;39.04;28.98;100476.72;4924601;28;98254;-72
2023/07/13 07:56:43;;;;;;;;;;;;;;;39.81;28.28;100475.97;4932872;27;98659;-76
2023/07/13 07:59:09;;;;;;;;;;;;;;;40.03;28.43;100473.78;4929769;27;97982;-72
2023/07/13 08:01:36;;;;;;;;;;;;;;;38.43;29.40;100470.56;4927370;28;99666;-76
2023/07/13 08:04:02;;;;;;;;;;;;;;;38.27;29.44;100471.53;4932785;27;98145;-72
2023/07/13 08:06:29;;;;;;;;;;;;;;;36.93;30.52;100464.34;4938694;28;98153;-76
2023/07/13 08:08:55;;;;;;;;;;;;;;;36.43;30.71;100462.25;4943929;27;97999;-73
2023/07/13 08:11:21;;;;;;;;;;;;;;;37.34;29.57;100471.91;4931876;27;98070;-72
2023/07/13 08:13:47;;;;;;;;;;;;;;;37.35;29.83;100478.31;4946448;28;98263;-76
2023/07/13 08:16:14;;;;;;;;;;;;;;;37.77;29.33;100475.34;4944750;28;99837;-72
2023/07/13 08:18:41;;;;;;;;;;;;;;;38.04;29.41;100477.59;4931237;27;98075;-77
2023/07/13 08:21:08;;;;;;;;;;;;;;;38.16;29.40;100482.41;4921758;27;98042;-77
2023/07/13 08:23:34;;;;;;;;;;;;;;;37.86;29.51;100477.44;4929756;28;98131;-76
2023/07/13 08:26:01;;;;;;;;;;;;;;;37.68;29.61;100492.09;4926516;28;98075;-76
2023/07/13 08:28:27;;;;;;;;;;;;;;;38.43;29.02;100490.28;4929744;28;98292;-76
2023/07/13 08:30:53;;;;;;;;;;;;;;;39.06;28.95;100488.28;4928575;27;97939;-72
2023/07/13 08:33:20;;;;;;;;;;;;;;;39.05;29.23;100492.34;4938302;28;98234;-73
2023/07/13 08:35:49;;;;;;;;;;;;;;;38.42;29.81;100485.09;4944664;27;98296;-77
2023/07/13 08:38:16;;;;;;;;;;;;;;;38.27;29.57;100482.78;4922496;28;98037;-77
2023/07/13 08:40:42;;;;;;;;;;;;;;;38.23;29.60;100476.50;4921017;28;98085;-76
2023/07/13 08:43:19;;;;;;;;;;;;;;;37.53;29.95;100484.16;4926806;28;99281;-72
2023/07/13 08:45:53;;;;;;;;;;;;;;;36.89;30.59;100476.94;4941980;27;98276;-76
2023/07/13 08:48:21;;;;;;;;;;;;;;;36.20;31.26;100469.72;4922276;27;98170;-77
2023/07/13 08:51:00;;;;;;;;;;;;;;;35.56;31.63;100469.34;4935794;27;98422;-76
2023/07/13 08:53:39;;;;;;;;;;;;;;;35.11;31.57;100486.03;4928352;28;98530;-76
2023/07/13 08:56:08;;;;;;;;;;;;;;;34.91;31.52;100481.25;4931463;28;98309;-72
2023/07/13 08:58:34;;;;;;;;;;;;;;;34.97;31.50;100475.13;4933571;27;98170;-72
2023/07/13 09:01:22;;;;;;;;;;;;;;;34.67;31.62;100477.00;4948627;27;98824;-76
2023/07/13 09:03:59;;;;;;;;;;;;;;;34.72;31.53;100481.28;4963065;27;98420;-72
2023/07/13 09:06:32;;;;;;;;;;;;;;;35.02;31.11;100477.44;4956518;28;102227;-72
2023/07/13 09:09:15;;;;;;;;;;;;;;;35.12;30.71;100476.41;4927399;27;97932;-72
2023/07/13 09:11:45;;;;;;;;;;;;;;;35.35;30.43;100481.06;4946344;27;116633;-72
2023/07/13 09:14:52;;;;;;;;;;;;;;;34.97;30.93;100477.94;4956063;28;98183;-76
2023/07/13 09:17:22;;;;;;;;;;;;;;;36.48;29.67;100484.19;4861668;28;98680;-72
2023/07/13 09:19:56;;;;;;;;;;;;;;;39.64;27.62;100495.22;4926724;28;98097;-75
2023/07/13 09:22:22;;;;;;;;;;;;;;;39.73;27.82;100487.59;4923507;28;97859;-74
2023/07/13 09:25:14;;;;;;;;;;;;;;;39.63;28.18;100491.59;4948956;27;98423;-74
2023/07/13 09:27:42;;;;;;;;;;;;;;;40.28;27.87;100503.72;4943960;28;100181;-75
2023/07/13 09:30:14;;;;;;;;;;;;;;;39.71;28.86;100494.94;4936617;27;99165;-74
2023/07/13 09:32:47;;;;;;;;;;;;;;;40.12;28.47;100490.72;4957391;27;98250;-70
2023/07/13 09:35:17;;;;;;;;;;;;;;;41.18;27.75;100492.69;4947459;28;98664;-72
2023/07/13 09:37:44;;;;;;;;;;;;;;;42.27;27.33;100500.16;4929207;27;97991;-78
2023/07/13 09:40:30;;;;;;;;;;;;;;;43.53;26.65;100509.72;4945748;27;98931;-73
2023/07/13 09:42:56;;;;;;;;;;;;;;;44.80;25.96;100510.09;4946165;27;98169;-74
2023/07/13 09:45:31;;;;;;;;;;;;;;;42.70;27.49;100498.63;4929450;28;97981;-79
2023/07/13 09:48:11;;;;;;;;;;;;;;;41.05;29.03;100483.66;4923673;28;98129;-75
2023/07/13 09:50:37;;;;;;;;;;;;;;;41.95;28.12;100491.31;4951394;27;98068;-72
2023/07/13 09:53:03;;;;;;;;;;;;;;;42.49;27.60;100482.81;4929280;28;98793;-78
2023/07/13 09:55:35;;;;;;;;;;;;;;;44.81;25.83;100484.03;4930151;27;98331;-75
2023/07/13 09:58:11;;;;;;;;;;;;;;;45.50;25.94;100486.03;4947901;27;98102;-79
2023/07/13 10:00:38;;;;;;;;;;;;;;;46.43;25.26;100479.59;4946317;27;98039;-73
2023/07/13 10:03:13;;;;;;;;;;;;;;;47.24;25.20;100480.53;4946482;27;98486;-77
2023/07/13 10:05:41;;;;;;;;;;;;;;;45.86;26.81;100472.97;4930932;27;97953;-74
2023/07/13 10:08:20;;;;;;;;;;;;;;;47.73;25.41;100483.00;4921828;28;99415;-79
2023/07/13 10:10:52;;;;;;;;;;;;;;;44.02;27.91;100471.13;4941700;28;98294;-78
2023/07/13 10:13:36;;;;;;;;;;;;;;;41.93;29.35;100477.63;4930571;27;98108;-77
2023/07/13 10:16:05;;;;;;;;;;;;;;;40.18;30.20;100471.16;4929642;27;98079;-73
2023/07/13 10:18:38;;;;;;;;;;;;;;;38.87;30.67;100481.81;4928189;28;98064;-78
2023/07/13 10:21:15;;;;;;;;;;;;;;;37.70;31.21;100479.16;4950451;27;99461;-72
2023/07/13 10:23:42;;;;;;;;;;;;;;;36.67;31.67;100485.22;4943781;27;98291;-74
2023/07/13 10:26:20;;;;;;;;;;;;;;;35.78;32.23;100491.25;4928839;27;99097;-77
2023/07/13 10:28:47;;;;;;;;;;;;;;;34.94;32.76;100502.00;4928733;28;98991;-76
2023/07/13 10:31:14;;;;;;;;;;;;;;;34.29;33.00;100501.72;4930318;27;98100;-76
2023/07/13 10:33:40;;;;;;;;;;;;;;;33.78;33.04;100504.59;4950181;28;98644;-76
2023/07/13 10:36:23;;;;;;;;;;;;;;;33.34;33.10;100494.53;4932319;28;98243;-71
2023/07/13 10:38:51;;;;;;;;;;;;;;;32.97;32.62;100505.44;4925765;27;98233;-73
2023/07/13 10:41:19;;;;;;;;;;;;;;;32.87;33.01;100499.97;4931721;28;98062;-73
2023/07/13 10:43:50;;;;;;;;;;;;;;;32.63;32.96;100511.00;4930799;28;99125;-72
2023/07/13 10:46:19;;;;;;;;;;;;;;;32.29;32.94;100510.19;4929027;28;98485;-75
2023/07/13 10:48:49;;;;;;;;;;;;;;;32.12;32.76;100511.97;4945583;27;98433;-72
2023/07/13 10:51:16;;;;;;;;;;;;;;;32.23;32.41;100513.44;4926526;28;98154;-72
2023/07/13 10:53:43;;;;;;;;;;;;;;;32.36;32.65;100507.31;4930201;27;98165;-76
2023/07/13 10:56:29;;;;;;;;;;;;;;;33.83;30.69;100512.47;4940247;28;99940;-76
2023/07/13 10:59:09;;;;;;;;;;;;;;;32.94;31.93;100508.28;4929450;27;98180;-72
2023/07/13 11:02:04;;;;;;;;;;;;;;;33.26;31.63;100518.19;4926478;28;99144;-73
2023/07/13 11:04:39;;;;;;;;;;;;;;;33.52;31.46;100519.41;4956333;28;97915;-72
2023/07/13 11:07:11;;;;;;;;;;;;;;;34.50;30.57;100500.53;4945630;27;99821;-76
2023/07/13 11:09:44;;;;;;;;;;;;;;;34.08;30.65;100509.28;4942719;27;98221;-76
2023/07/13 11:12:26;;;;;;;;;;;;;;;34.58;30.55;100516.72;4925256;28;99046;-76
2023/07/13 11:14:55;;;;;;;;;;;;;;;37.75;28.01;100512.31;4953551;27;98045;-77
2023/07/13 11:17:49;;;;;;;;;;;;;;;36.77;29.13;100503.78;4956083;28;115742;-77
2023/07/13 11:20:15;;;;;;;;;;;;;;;36.43;29.71;100501.53;4941082;28;99565;-72
2023/07/13 11:23:05;;;;;;;;;;;;;;;36.92;29.29;100499.28;4976380;27;98092;-72
2023/07/13 11:25:33;;;;;;;;;;;;;;;36.22;30.04;100497.31;4931926;27;99473;-73
2023/07/13 11:28:11;;;;;;;;;;;;;;;35.91;30.22;100489.28;4929329;27;98002;-76
2023/07/13 11:30:51;;;;;;;;;;;;;;;35.79;30.29;100493.59;4952608;27;98239;-76
2023/07/13 11:33:27;;;;;;;;;;;;;;;36.07;29.77;100494.09;4959611;28;98155;-77
2023/07/13 11:36:13;;;;;;;;;;;;;;;37.59;28.87;100504.81;4940374;27;98747;-74
2023/07/13 11:38:41;;;;;;;;;;;;;;;38.91;28.14;100504.97;4940688;27;98118;-77
2023/07/13 11:41:15;;;;;;;;;;;;;;;39.21;27.78;100506.19;4927523;27;97888;-76
2023/07/13 11:43:42;;;;;;;;;;;;;;;39.41;27.99;100486.06;4923051;28;98150;-77
2023/07/13 11:46:21;;;;;;;;;;;;;;;39.72;28.02;100486.00;4927382;27;99268;-77
2023/07/13 11:48:48;;;;;;;;;;;;;;;38.67;29.34;100484.94;4951828;28;99480;-78
2023/07/13 11:51:28;;;;;;;;;;;;;;;37.61;30.24;100465.00;4928173;28;99686;-73
2023/07/13 11:53:55;;;;;;;;;;;;;;;37.46;29.58;100469.56;4958164;27;97950;-77
2023/07/13 11:56:21;;;;;;;;;;;;;;;37.19;29.83;100464.41;4923487;28;98439;-77
2023/07/13 11:58:52;;;;;;;;;;;;;;;36.55;30.91;100464.31;4926012;28;100076;-78
2023/07/13 12:01:32;;;;;;;;;;;;;;;36.04;31.02;100458.53;4923302;27;99001;-76
2023/07/13 12:03:59;;;;;;;;;;;;;;;35.51;31.06;100460.69;4946843;27;98031;-73
2023/07/13 12:06:39;;;;;;;;;;;;;;;35.09;31.29;100466.06;4944445;28;98170;-72
2023/07/13 12:09:12;;;;;;;;;;;;;;;34.60;31.50;100469.53;4945200;28;101159;-76
2023/07/13 12:11:42;;;;;;;;;;;;;;;34.21;31.82;100467.50;4927498;27;98273;-74
2023/07/13 12:14:18;;;;;;;;;;;;;;;33.88;31.68;100475.69;4927659;28;98235;-74
2023/07/13 12:16:45;;;;;;;;;;;;;;;33.62;31.78;100470.97;4947864;28;97897;-75
2023/07/13 12:19:22;;;;;;;;;;;;;;;33.43;31.44;100469.63;4929218;28;98299;-71
2023/07/13 12:21:49;;;;;;;;;;;;;;;33.82;31.04;100462.63;4926190;27;99014;-71
2023/07/13 12:24:19;;;;;;;;;;;;;;;35.23;30.13;100454.56;4928212;28;98705;-75
2023/07/13 12:26:50;;;;;;;;;;;;;;;36.17;29.75;100450.97;4942339;27;100560;-70
2023/07/13 12:29:17;;;;;;;;;;;;;;;35.75;30.05;100452.88;4948608;27;98033;-75
2023/07/13 12:31:48;;;;;;;;;;;;;;;35.28;30.61;100453.22;4947967;27;98454;-75
2023/07/13 12:34:21;;;;;;;;;;;;;;;35.55;30.27;100456.59;4946963;27;98824;-69
2023/07/13 12:37:01;;;;;;;;;;;;;;;35.06;30.70;100455.78;4931876;27;99662;-74
2023/07/13 12:39:35;;;;;;;;;;;;;;;34.72;30.82;100467.31;4925078;27;97993;-70
2023/07/13 12:42:26;;;;;;;;;;;;;;;34.72;30.79;100456.91;4948648;28;97953;-74
2023/07/13 12:44:57;;;;;;;;;;;;;;;34.44;30.93;100459.03;4947324;27;98081;-70